| time (UTC) | temp F | wind direction | speed knots | gust knots | rain 1hr in | rain 24hr in | rain mn in | humidity % | barometer mb |
| 20260507155748 | 53 | 218 | 4.3 | 6.1 | 0.00 | 0.02 | 0.02 | 70 | 1021.3 |
| 20260507154248 | 51 | 245 | 7.0 | 10.4 | 0.00 | 0.02 | 0.02 | 77 | 1021.2 |
| 20260507152748 | 49 | 246 | 4.3 | 2.6 | 0.00 | 0.02 | 0.02 | 81 | 1021.3 |
| 20260507151248 | 47 | 258 | 2.6 | 2.6 | 0.00 | 0.02 | 0.02 | 86 | 1021.5 |
| 20260507145748 | 46 | 239 | 2.6 | 2.6 | 0.00 | 0.02 | 0.02 | 88 | 1021.7 |
| 20260507144248 | 44 | 253 | 4.3 | 5.2 | 0.00 | 0.02 | 0.02 | 91 | 1021.8 |
| 20260507142747 | 43 | 275 | 7.0 | 7.8 | 0.00 | 0.02 | 0.02 | 92 | 1021.9 |
| 20260507141247 | 43 | 227 | 2.6 | 2.6 | 0.00 | 0.02 | 0.02 | 92 | 1022.1 |
| 20260507135747 | 42 | 253 | 1.7 | 2.6 | 0.00 | 0.02 | 0.02 | 93 | 1022.0 |
| 20260507134247 | 42 | 229 | 1.7 | 2.6 | 0.00 | 0.02 | 0.02 | 92 | 1022.1 |
| 20260507132747 | 42 | 243 | 1.7 | 2.6 | 0.00 | 0.02 | 0.02 | 92 | 1022.2 |
| 20260507131247 | 41 | 231 | 4.3 | 5.2 | 0.00 | 0.02 | 0.02 | 92 | 1022.1 |
| 20260507125746 | 41 | 258 | 5.2 | 6.1 | 0.00 | 0.02 | 0.02 | 92 | 1022.0 |
| 20260507124246 | 41 | 260 | 4.3 | 5.2 | 0.00 | 0.02 | 0.02 | 92 | 1021.9 |
| 20260507122746 | 41 | 284 | 4.3 | 5.2 | 0.00 | 0.02 | 0.02 | 92 | 1021.8 |
| 20260507121246 | 41 | 295 | 2.6 | 2.6 | 0.00 | 0.02 | 0.02 | 92 | 1021.9 |
| 20260507115746 | 41 | 293 | 4.3 | 6.1 | 0.00 | 0.02 | 0.02 | 92 | 1021.7 |
| 20260507114246 | 41 | 253 | 4.3 | 2.6 | 0.00 | 0.02 | 0.02 | 91 | 1021.7 |
| 20260507112746 | 41 | 301 | 1.7 | 6.1 | 0.00 | 0.02 | 0.02 | 91 | 1021.6 |
| 20260507111245 | 41 | 266 | 4.3 | 4.3 | 0.00 | 0.02 | 0.02 | 91 | 1021.7 |
| 20260507105745 | 41 | 258 | 1.7 | 2.6 | 0.00 | 0.02 | 0.02 | 90 | 1021.7 |
| 20260507104245 | 42 | 294 | 4.3 | 6.1 | 0.00 | 0.02 | 0.02 | 90 | 1021.9 |
| 20260507102745 | 42 | 284 | 2.6 | 4.3 | 0.00 | 0.02 | 0.02 | 90 | 1021.9 |
| 20260507101245 | 42 | 277 | 0.9 | 1.7 | 0.00 | 0.02 | 0.02 | 89 | 1021.9 |
| 20260507095745 | 43 | 316 | 0.9 | 0.9 | 0.00 | 0.02 | 0.02 | 89 | 1021.9 |
| 20260507094245 | 43 | 315 | 1.7 | 1.7 | 0.00 | 0.02 | 0.02 | 90 | 1021.9 |
| 20260507092744 | 43 | 292 | 0.0 | 0.9 | 0.00 | 0.02 | 0.02 | 90 | 1021.9 |
| 20260507091244 | 43 | 293 | 0.9 | 1.7 | 0.00 | 0.02 | 0.02 | 89 | 1021.8 |
| 20260507085744 | 42 | 339 | 4.3 | 2.6 | 0.00 | 0.02 | 0.02 | 89 | 1021.7 |
| 20260507084244 | 43 | 330 | 0.0 | 0.0 | 0.00 | 0.02 | 0.02 | 88 | 1021.4 |
| 20260507082744 | 43 | 330 | 0.0 | 0.0 | 0.02 | 0.02 | 0.02 | 87 | 1021.3 |
| 20260507081243 | 43 | 330 | 0.0 | 0.0 | 0.02 | 0.02 | 0.02 | 87 | 1021.5 |
| 20260507075743 | 44 | 330 | 0.0 | 0.0 | 0.02 | 0.02 | 0.02 | 86 | 1021.6 |
| 20260507074243 | 44 | 330 | 0.0 | 0.0 | 0.02 | 0.02 | 0.02 | 86 | 1021.5 |
| 20260507072743 | 44 | 330 | 0.0 | 0.0 | 0.00 | 0.00 | 0.00 | 83 | 1022.2 |
| 20260507071243 | 45 | 337 | 0.0 | 0.9 | 0.00 | 0.00 | 0.00 | 81 | 1022.4 |
| 20260507065742 | 45 | 351 | 0.0 | 0.0 | 0.00 | 0.00 | 0.00 | 76 | 1022.9 |
| 20260507064242 | 46 | 338 | 0.0 | 0.0 | 0.00 | 0.00 | 0.00 | 72 | 1022.8 |
| 20260507062742 | 46 | 325 | 1.7 | 2.6 | 0.00 | 0.00 | 0.00 | 68 | 1023.1 |
| 20260507061242 | 46 | 2 | 0.9 | 1.7 | 0.00 | 0.00 | 0.00 | 67 | 1022.4 |
| 20260507055742 | 47 | 5 | 0.0 | 0.0 | 0.00 | 0.00 | 0.00 | 67 | 1022.2 |
| 20260507054242 | 47 | 348 | 0.0 | 0.0 | 0.00 | 0.00 | 0.00 | 66 | 1021.9 |
| 20260507052742 | 47 | 10 | 0.0 | 0.0 | 0.00 | 0.00 | 0.00 | 65 | 1022.2 |
| 20260507051241 | 47 | 9 | 0.9 | 0.9 | 0.00 | 0.00 | 0.00 | 64 | 1021.6 |
| 20260507045741 | 47 | 358 | 0.9 | 1.7 | 0.00 | 0.00 | 0.00 | 64 | 1021.7 |
| 20260507044241 | 48 | 18 | 5.2 | 7.8 | 0.00 | 0.00 | 0.00 | 64 | 1022.0 |
| 20260507042741 | 49 | 353 | 2.6 | 5.2 | 0.00 | 0.00 | 0.00 | 61 | 1022.0 |
| 20260507041241 | 49 | 349 | 1.7 | 2.6 | 0.00 | 0.00 | 0.00 | 58 | 1021.6 |
| 20260507035741 | 49 | 23 | 0.9 | 0.9 | 0.00 | 0.00 | 0.00 | 58 | 1021.5 |
| 20260507034241 | 50 | 8 | 2.6 | 7.0 | 0.00 | 0.00 | 0.00 | 57 | 1021.6 |
| 20260507032740 | 50 | 37 | 1.7 | 1.7 | 0.00 | 0.00 | 0.00 | 56 | 1021.3 |
| 20260507031240 | 51 | 0 | 17.4 | 17.4 | 0.00 | 0.00 | 0.00 | 56 | 1021.0 |
| 20260507025740 | 52 | 345 | 1.7 | 1.7 | 0.00 | 0.00 | 0.00 | 54 | 1020.6 |
| 20260507024240 | 53 | 12 | 2.6 | 2.6 | 0.00 | 0.00 | 0.00 | 53 | 1020.3 |
| 20260507022740 | 54 | 349 | 6.1 | 7.8 | 0.00 | 0.00 | 0.00 | 52 | 1019.9 |
| 20260507021240 | 55 | 40 | 1.7 | 2.6 | 0.00 | 0.00 | 0.00 | 50 | 1019.6 |
| 20260507015740 | 55 | 21 | 0.9 | 0.9 | 0.00 | 0.00 | 0.00 | 51 | 1018.9 |
| 20260507014239 | 56 | 17 | 1.7 | 2.6 | 0.00 | 0.00 | 0.00 | 51 | 1018.4 |
| 20260507012739 | 56 | 55 | 0.0 | 0.0 | 0.00 | 0.00 | 0.00 | 50 | 1017.7 |
| 20260507011239 | 57 | 39 | 0.0 | 1.7 | 0.00 | 0.00 | 0.00 | 48 | 1017.2 |
| 20260507005739 | 58 | 61 | 0.0 | 0.9 | 0.00 | 0.00 | 0.00 | 47 | 1016.5 |
| 20260507004239 | 59 | 37 | 0.0 | 0.9 | 0.00 | 0.00 | 0.00 | 46 | 1016.3 |
| 20260507002738 | 59 | 53 | 0.0 | 0.9 | 0.00 | 0.00 | 0.00 | 46 | 1016.2 |
| 20260507001238 | 60 | 40 | 0.9 | 0.9 | 0.00 | 0.00 | 0.00 | 46 | 1016.0 |
| 20260506235738 | 60 | 59 | 0.9 | 0.9 | 0.00 | 0.00 | 0.00 | 46 | 1015.5 |
| 20260506234238 | 59 | 58 | 0.9 | 0.0 | 0.00 | 0.00 | 0.00 | 47 | 1015.6 |
| 20260506232738 | 60 | 118 | 0.0 | 0.0 | 0.00 | 0.00 | 0.00 | 46 | 1015.6 |
| 20260506231238 | 60 | 28 | 0.9 | 0.9 | 0.00 | 0.00 | 0.00 | 47 | 1015.7 |
| 20260506225737 | 59 | 75 | 0.9 | 0.9 | 0.00 | 0.00 | 0.00 | 47 | 1015.8 |
| 20260506224237 | 60 | 112 | 1.7 | 2.6 | 0.00 | 0.00 | 0.00 | 47 | 1015.9 |
| 20260506222737 | 59 | 76 | 0.0 | 0.0 | 0.00 | 0.00 | 0.00 | 47 | 1015.8 |
| 20260506221237 | 59 | 26 | 0.9 | 1.7 | 0.00 | 0.00 | 0.00 | 47 | 1016.0 |
| 20260506215737 | 59 | 64 | 1.7 | 1.7 | 0.00 | 0.00 | 0.00 | 48 | 1016.1 |
| 20260506214237 | 59 | 55 | 0.9 | 2.6 | 0.00 | 0.00 | 0.00 | 49 | 1016.1 |
| 20260506212737 | 59 | 45 | 0.9 | 0.9 | 0.00 | 0.00 | 0.00 | 48 | 1016.1 |
| 20260506211237 | 59 | 53 | 0.9 | 0.9 | 0.00 | 0.00 | 0.00 | 47 | 1016.2 |
| 20260506205736 | 59 | 61 | 0.9 | 0.9 | 0.00 | 0.00 | 0.00 | 49 | 1016.3 |
| 20260506204236 | 59 | 59 | 0.9 | 2.6 | 0.00 | 0.00 | 0.00 | 48 | 1016.4 |
| 20260506202736 | 60 | 107 | 7.8 | 17.4 | 0.00 | 0.00 | 0.00 | 47 | 1016.4 |
| 20260506201236 | 60 | 115 | 0.0 | 0.0 | 0.00 | 0.00 | 0.00 | 47 | 1016.4 |
| 20260506195736 | 58 | 77 | 0.9 | 2.6 | 0.00 | 0.00 | 0.00 | 49 | 1016.5 |
| 20260506194236 | 59 | 61 | 0.9 | 1.7 | 0.00 | 0.00 | 0.00 | 49 | 1016.6 |
| 20260506192736 | 57 | 338 | 0.0 | 0.9 | 0.00 | 0.00 | 0.00 | 52 | 1016.9 |
| 20260506191236 | 57 | 5 | 0.0 | 0.0 | 0.00 | 0.00 | 0.00 | 50 | 1016.9 |
| 20260506185735 | 56 | 68 | 0.0 | 0.0 | 0.00 | 0.00 | 0.00 | 53 | 1017.0 |
| 20260506184235 | 56 | 76 | 0.0 | 0.9 | 0.00 | 0.00 | 0.00 | 51 | 1017.1 |
| 20260506182735 | 57 | 88 | 0.0 | 0.0 | 0.00 | 0.00 | 0.00 | 51 | 1017.3 |
| 20260506181235 | 57 | 13 | 0.0 | 0.0 | 0.00 | 0.00 | 0.00 | 52 | 1017.8 |
| 20260506175735 | 55 | 40 | 0.9 | 1.7 | 0.00 | 0.00 | 0.00 | 54 | 1017.8 |
| 20260506174235 | 55 | 60 | 0.0 | 0.0 | 0.00 | 0.00 | 0.00 | 53 | 1017.9 |
| 20260506172734 | 55 | 76 | 0.0 | 0.0 | 0.00 | 0.00 | 0.00 | 54 | 1017.9 |
| 20260506171234 | 54 | 104 | 0.0 | 1.7 | 0.00 | 0.00 | 0.00 | 58 | 1017.7 |
| 20260506165734 | 52 | 80 | 0.0 | 0.0 | 0.00 | 0.00 | 0.00 | 60 | 1017.7 |
| 20260506164234 | 51 | 64 | 0.0 | 0.0 | 0.00 | 0.00 | 0.00 | 61 | 1017.8 |
| 20260506162734 | 50 | 126 | 0.9 | 1.7 | 0.00 | 0.00 | 0.00 | 62 | 1017.7 |
| 20260506161234 | 49 | 97 | 0.0 | 0.0 | 0.00 | 0.00 | 0.00 | 64 | 1017.4 |